Wylie's Hourly Summary for Sunday, July 8, 2018
Hour Temp
(f)
RH
(%)
Solar Rad.
(MJ/m2)
Rainfall
(in)
Wind
(mph)
7/8/2018 12:00 AM 82 60 0 0 4.04
7/8/2018 1:00 AM 80 64 0 0 3.56
7/8/2018 2:00 AM 78 68 0 0 3.18
7/8/2018 3:00 AM 77 76 0 0 2.68
7/8/2018 4:00 AM 76 78 0 0 2.63
7/8/2018 5:00 AM 76 78 0 0 0.29
7/8/2018 6:00 AM 76 77 0 0 1.28
7/8/2018 7:00 AM 75 80 0.03 0 0.18
7/8/2018 8:00 AM 77 75 0.44 0 3.17
7/8/2018 9:00 AM 78 72 1.11 0 5.69
7/8/2018 10:00 AM 81 66 1.72 0 4.7
7/8/2018 11:00 AM 84 58 2.33 0 4.53
7/8/2018 12:00 PM 86 54 2.84 0 5.25
7/8/2018 1:00 PM 88 49 3.11 0 6.1
7/8/2018 2:00 PM 90 45 2.76 0 6.13
7/8/2018 3:00 PM 92 39 2.95 0 6.06
7/8/2018 4:00 PM 93 37 2.98 0 7.51
7/8/2018 5:00 PM 93 35 2.14 0 7.03
7/8/2018 6:00 PM 93 36 2.03 0 6.87
7/8/2018 7:00 PM 90 44 1.19 0 6.56
7/8/2018 8:00 PM 88 50 0.28 0 6.13
7/8/2018 9:00 PM 84 56 0.06 0 5.51
7/8/2018 10:00 PM 78 71 0 0 1.32
7/8/2018 11:00 PM 80 66 0 0 2.46
Data Summary 83 59 25.97 0.00 4.29